Alan Albright — WDI5601 — position and weather

sailwx.info

Track history (hours):
 
Tides and Currents Weather Stations Pressure Air Temp Water Temp Dewpoint Dewpoint Depression Visibility Wind Speed Wind Dir Waves Ship Positions

Alan Albright

Owner: McGinnis, Inc., South Point, OH. More information available from US FCC via Universal Licensing System and Coast Guard Vessel Documentation Center.

Last reported at 2018-May-15 14:15 UTC. Time now 2018-Jun-17 23:40 UTC.
Position N 38°45' W 090°09'.
Warning: this ship's position is 33 days out of date.

Length 18 m; draft 1.8 m.

Type: Tow > 200 m length. MMSI: 367710260.

Date/timePositionNaut miles runAvg speedWind from/ knotsBaromVisibWave heightAir tempDewpointWater temp
2018-May-15 14:15N 38°45' W 090°09'1 3.4
2018-May-15 14:00N 38°44' W 090°09'3 3.8
2018-May-15 13:20N 38°42' W 090°11'2 4.8
2018-May-15 13:00N 38°40' W 090°11'3 3.8
2018-May-15 12:20N 38°38' W 090°11'2 3.7
2018-May-15 11:53N 38°36' W 090°11'5 1.8
2018-May-15 09:08N 38°32' W 090°15'310.1
2018-May-15 08:49N 38°35' W 090°13'1 0.4
2018-May-15 07:20N 38°35' W 090°12'4 1.0
2018-May-15 03:37N 38°32' W 090°15'0 0.0
2018-May-15 03:27N 38°32' W 090°15'0 0.0
2018-May-15 03:00N 38°32' W 090°15'0 0.0
2018-May-14 05:42N 38°33' W 090°15'4 2.5
2018-May-14 04:12N 38°35' W 090°12'0 0.7
2018-May-14 04:00N 38°35' W 090°12'0 0.0
2018-May-14 02:15N 38°35' W 090°12'0 0.0
2018-May-14 01:58N 38°35' W 090°12'4 0.3
2018-May-13 14:14N 38°33' W 090°15'410.3
2018-May-13 13:53N 38°35' W 090°12'0 0.0
2018-May-13 13:30N 38°35' W 090°12'0 0.0
2018-May-13 13:00N 38°35' W 090°12'0 0.0
2018-May-13 12:30N 38°35' W 090°12'0 0.0
2018-May-13 12:00N 38°35' W 090°12'4 0.2
2018-May-12 11:16N 38°32' W 090°15'2 0.0
2018-May-10 12:43N 38°31' W 090°16'2 1.3
2018-May-10 11:17N 38°32' W 090°15'0 0.0
2018-May-10 10:49N 38°32' W 090°15'0 0.0
2018-May-10 10:29N 38°32' W 090°15'0 0.0
2018-May-10 10:00N 38°32' W 090°15'0 0.0
2018-May-10 09:24N 38°32' W 090°15'0 0.0
2018-May-10 08:53N 38°32' W 090°15'0 0.0
2018-May-10 08:22N 38°32' W 090°15'3 0.8
2018-May-10 04:08N 38°35' W 090°13'0 1.8
2018-May-10 03:55N 38°35' W 090°12'0 0.0
2018-May-10 02:40N 38°35' W 090°12'5 0.2
2018-May-09 02:20N 38°32' W 090°15'0 0.0
2018-May-09 02:00N 38°32' W 090°15'0 0.0
2018-May-09 01:26N 38°32' W 090°15'0 0.0
2018-May-09 00:57N 38°32' W 090°15'0 0.0
2018-May-09 00:30N 38°32' W 090°15'5 0.4
2018-May-08 12:15N 38°36' W 090°12'0 0.5
2018-May-08 12:00N 38°35' W 090°12'4 0.1
2018-May-06 10:33N 38°32' W 090°15'0 0.0
2018-May-06 10:16N 38°32' W 090°15'0 0.0
2018-May-06 10:00N 38°32' W 090°15'0 0.0
2018-May-06 09:30N 38°32' W 090°15'0 0.0
2018-May-06 09:00N 38°32' W 090°15'0 0.0
2018-May-06 08:30N 38°32' W 090°15'  
Track history (hours):
 
Tides and Currents Weather Stations Pressure Air Temp Water Temp Dewpoint Dewpoint Depression Visibility Wind Speed Wind Dir Waves Ship Positions

Alan Albright

Owner: McGinnis, Inc., South Point, OH. More information available from US FCC via Universal Licensing System and Coast Guard Vessel Documentation Center.

Last reported at 2018-May-15 14:15 UTC. Time now 2018-Jun-17 23:40 UTC.
Position N 38°45' W 090°09'.
Warning: this ship's position is 33 days out of date.

Length 18 m; draft 1.8 m.

Type: Tow > 200 m length. MMSI: 367710260.

Date/timePositionNaut miles runAvg speedWind from/ knotsBaromVisibWave heightAir tempDewpointWater temp
2018-May-15 14:15N 38°45' W 090°09'1 3.4
2018-May-15 14:00N 38°44' W 090°09'3 3.8
2018-May-15 13:20N 38°42' W 090°11'2 4.8
2018-May-15 13:00N 38°40' W 090°11'3 3.8
2018-May-15 12:20N 38°38' W 090°11'2 3.7
2018-May-15 11:53N 38°36' W 090°11'5 1.8
2018-May-15 09:08N 38°32' W 090°15'310.1
2018-May-15 08:49N 38°35' W 090°13'1 0.4
2018-May-15 07:20N 38°35' W 090°12'4 1.0
2018-May-15 03:37N 38°32' W 090°15'0 0.0
2018-May-15 03:27N 38°32' W 090°15'0 0.0
2018-May-15 03:00N 38°32' W 090°15'0 0.0
2018-May-14 05:42N 38°33' W 090°15'4 2.5
2018-May-14 04:12N 38°35' W 090°12'0 0.7
2018-May-14 04:00N 38°35' W 090°12'0 0.0
2018-May-14 02:15N 38°35' W 090°12'0 0.0
2018-May-14 01:58N 38°35' W 090°12'4 0.3
2018-May-13 14:14N 38°33' W 090°15'410.3
2018-May-13 13:53N 38°35' W 090°12'0 0.0
2018-May-13 13:30N 38°35' W 090°12'0 0.0
2018-May-13 13:00N 38°35' W 090°12'0 0.0
2018-May-13 12:30N 38°35' W 090°12'0 0.0
2018-May-13 12:00N 38°35' W 090°12'4 0.2
2018-May-12 11:16N 38°32' W 090°15'2 0.0
2018-May-10 12:43N 38°31' W 090°16'2 1.3
2018-May-10 11:17N 38°32' W 090°15'0 0.0
2018-May-10 10:49N 38°32' W 090°15'0 0.0
2018-May-10 10:29N 38°32' W 090°15'0 0.0
2018-May-10 10:00N 38°32' W 090°15'0 0.0
2018-May-10 09:24N 38°32' W 090°15'0 0.0
2018-May-10 08:53N 38°32' W 090°15'0 0.0
2018-May-10 08:22N 38°32' W 090°15'3 0.8
2018-May-10 04:08N 38°35' W 090°13'0 1.8
2018-May-10 03:55N 38°35' W 090°12'0 0.0
2018-May-10 02:40N 38°35' W 090°12'5 0.2
2018-May-09 02:20N 38°32' W 090°15'0 0.0
2018-May-09 02:00N 38°32' W 090°15'0 0.0
2018-May-09 01:26N 38°32' W 090°15'0 0.0
2018-May-09 00:57N 38°32' W 090°15'0 0.0
2018-May-09 00:30N 38°32' W 090°15'5 0.4
2018-May-08 12:15N 38°36' W 090°12'0 0.5
2018-May-08 12:00N 38°35' W 090°12'4 0.1
2018-May-06 10:33N 38°32' W 090°15'0 0.0
2018-May-06 10:16N 38°32' W 090°15'0 0.0
2018-May-06 10:00N 38°32' W 090°15'0 0.0
2018-May-06 09:30N 38°32' W 090°15'0 0.0
2018-May-06 09:00N 38°32' W 090°15'0 0.0
2018-May-06 08:30N 38°32' W 090°15'  

Dump ship's entire track history